Terminal Aerodrome Forecast
Issued by NWS Tiyan, Guam

Home | Current Version | Previous Version | Text Only | Print | Product List | Glossary On
Versions: 1 2 3 4 5 6 7 8 9 10 11 12 13 14 15 16 17 18 19 20 21 22 23 24 25 26
263
FTPQ31 PGUM 052327
TAFGUM
TAF
PGUM 052327Z 0600/0706 09012G20KT P6SM FEW020 BKN050
      TEMPO 0600/0603 -SHRA SCT016 BKN030
     FM060300 09015G25KT P6SM VCSH FEW020 SCT050
     FM060800 09011KT P6SM VCSH FEW025 SCT060=

USA.gov is the U.S. government's official web portal to all federal, state and local government web resources and services.